Terminal Aerodrome Forecast
Issued by NWS Jackson, KY

Home | Current Version | Previous Version | Text Only | Print | Product List | Glossary On
Versions: 1 2 3 4 5 6 7 8 9 10 11 12 13 14
266
FTUS43 KJKL 302347
TAFLOZ
TAF
KLOZ 302347Z 0100/0124 23010G20KT 4SM SHRA BKN025 BKN100
     FM010030 26005KT P6SM SCT100
     FM010700 26005KT P6SM BKN035
     FM011000 26006KT P6SM BKN025
     FM011500 26009G17KT P6SM SCT035=

USA.gov is the U.S. government's official web portal to all federal, state and local government web resources and services.